createdAt,value
2019-05-21T00:00:58.260Z,23
2019-05-21T00:06:00.712Z,23
2019-05-21T00:11:03.201Z,23
2019-05-21T00:16:05.611Z,18
2019-05-21T00:21:08.211Z,21
2019-05-21T00:26:10.526Z,20
2019-05-21T00:31:12.993Z,21
2019-05-21T00:36:15.464Z,20
2019-05-21T00:41:17.946Z,22
2019-05-21T00:46:20.467Z,22
2019-05-21T00:51:23.013Z,24
2019-05-21T00:56:25.274Z,22
2019-05-21T01:01:28.098Z,25
2019-05-21T01:06:30.322Z,24
2019-05-21T01:11:32.695Z,26
2019-05-21T01:16:35.118Z,25
2019-05-21T01:21:37.704Z,25
2019-05-21T01:26:40.045Z,24
2019-05-21T01:31:42.489Z,25
2019-05-21T01:36:44.977Z,26
2019-05-21T01:41:47.437Z,27
2019-05-21T01:46:49.950Z,25
2019-05-21T01:51:52.417Z,25
2019-05-21T01:56:54.768Z,20
2019-05-21T02:01:57.257Z,23
2019-05-21T02:06:59.719Z,24
2019-05-21T02:12:02.187Z,23
2019-05-21T02:17:04.607Z,21
2019-05-21T02:22:07.165Z,22
2019-05-21T02:27:09.557Z,22
2019-05-21T02:32:11.981Z,23
2019-05-21T02:37:14.466Z,24
2019-05-21T02:42:16.882Z,23
2019-05-21T02:47:19.365Z,24
2019-05-21T02:52:21.846Z,23
2019-05-21T02:57:24.342Z,21
2019-05-21T03:02:26.724Z,20
2019-05-21T03:07:29.191Z,20
2019-05-21T03:12:31.658Z,17
2019-05-21T03:17:34.112Z,18
2019-05-21T03:22:36.614Z,17
2019-05-21T03:27:39.012Z,17
2019-05-21T03:32:41.495Z,17
2019-05-21T03:37:43.945Z,18
2019-05-21T03:42:46.376Z,20
2019-05-21T03:47:48.835Z,23
2019-05-21T03:52:51.380Z,23
2019-05-21T03:57:53.835Z,20
2019-05-21T04:02:56.214Z,23
2019-05-21T04:07:58.729Z,27
2019-05-21T04:13:01.172Z,32
2019-05-21T04:18:03.625Z,31
2019-05-21T04:23:06.075Z,31
2019-05-21T04:28:08.542Z,33
2019-05-21T04:33:10.976Z,29
2019-05-21T04:38:13.484Z,30
2019-05-21T04:43:15.911Z,25
2019-05-21T04:48:18.370Z,28
2019-05-21T04:53:20.804Z,24
2019-05-21T04:58:23.254Z,19
2019-05-21T05:08:28.163Z,18
2019-05-21T05:13:30.624Z,16
2019-05-21T05:18:33.096Z,16
2019-05-21T05:23:35.537Z,14
2019-05-21T05:28:38.018Z,15
2019-05-21T05:33:40.451Z,14
2019-05-21T05:38:42.901Z,14
2019-05-21T05:43:45.345Z,13
2019-05-21T05:48:47.832Z,14
2019-05-21T05:53:50.283Z,11
2019-05-21T05:58:52.857Z,14
2019-05-21T06:03:55.192Z,13
2019-05-21T06:08:57.698Z,14
2019-05-21T06:14:00.139Z,14
2019-05-21T06:19:03.058Z,13
2019-05-21T06:24:05.040Z,14
2019-05-21T06:29:07.481Z,12
2019-05-21T06:34:09.939Z,13
2019-05-21T06:39:12.441Z,12
2019-05-21T06:44:14.868Z,12
2019-05-21T06:49:17.351Z,11
2019-05-21T06:54:19.779Z,11
2019-05-21T06:59:22.232Z,12
2019-05-21T07:04:24.734Z,11
2019-05-21T07:09:27.179Z,10
2019-05-21T07:14:29.599Z,8
2019-05-21T07:19:32.071Z,9
2019-05-21T07:24:34.528Z,10
2019-05-21T07:29:37.019Z,9
2019-05-21T07:34:39.447Z,9
2019-05-21T07:39:42.043Z,11
2019-05-21T07:44:44.455Z,10
2019-05-21T07:49:46.820Z,9
2019-05-21T07:54:49.342Z,9
2019-05-21T07:59:51.794Z,10
2019-05-21T08:04:54.257Z,11
2019-05-21T08:09:56.863Z,11
2019-05-21T08:14:59.126Z,12
2019-05-21T08:20:08.974Z,10
2019-05-21T08:25:05.088Z,11
2019-05-21T08:30:06.626Z,11
2019-05-21T08:35:08.970Z,9
2019-05-21T08:40:11.430Z,9
2019-05-21T08:45:13.904Z,9
2019-05-21T08:50:16.334Z,8
2019-05-21T08:55:18.964Z,8
2019-05-21T09:00:21.247Z,10
2019-05-21T09:05:23.879Z,12
2019-05-21T09:15:28.666Z,11
2019-05-21T09:20:31.105Z,8
2019-05-21T09:25:33.675Z,7
2019-05-21T09:30:36.013Z,6
2019-05-21T09:35:38.483Z,5
2019-05-21T09:40:40.939Z,6
2019-05-21T09:50:45.835Z,7
2019-05-21T09:55:48.296Z,7
2019-05-21T10:00:50.775Z,7
2019-05-21T10:05:53.249Z,9
2019-05-21T10:10:55.700Z,8
2019-05-21T10:16:01.141Z,8
2019-05-21T10:21:00.753Z,9
2019-05-21T10:26:03.041Z,9
2019-05-21T10:31:05.557Z,9
2019-05-21T10:36:07.970Z,9
2019-05-21T10:41:10.453Z,9
2019-05-21T10:46:12.865Z,9
2019-05-21T10:51:15.418Z,10
2019-05-21T10:56:17.804Z,9
2019-05-21T11:01:20.278Z,9
2019-05-21T11:06:22.746Z,11
2019-05-21T11:11:25.214Z,11
2019-05-21T11:16:27.651Z,11
2019-05-21T11:21:30.122Z,10
2019-05-21T11:26:32.564Z,9
2019-05-21T11:31:35.027Z,7
2019-05-21T11:36:37.570Z,7
2019-05-21T11:41:39.939Z,7
2019-05-21T11:46:42.409Z,6
2019-05-21T11:51:44.853Z,6
2019-05-21T11:56:47.321Z,5
2019-05-21T12:01:49.780Z,4
2019-05-21T12:06:52.253Z,5
2019-05-21T12:11:54.824Z,3
2019-05-21T12:16:57.168Z,3
2019-05-21T12:21:59.615Z,3
2019-05-21T12:27:02.125Z,4
2019-05-21T12:32:04.543Z,4
2019-05-21T12:37:07.032Z,4
2019-05-21T12:42:09.466Z,4
2019-05-21T12:47:11.928Z,4
2019-05-21T12:52:14.401Z,5
2019-05-21T12:57:16.857Z,4
2019-05-21T13:02:19.332Z,5
2019-05-21T13:07:21.986Z,5
2019-05-21T13:12:24.230Z,5
2019-05-21T13:17:26.728Z,5
2019-05-21T13:22:29.353Z,5
2019-05-21T13:27:31.629Z,6
2019-05-21T13:32:34.090Z,6
2019-05-21T13:37:36.576Z,7
2019-05-21T13:42:38.973Z,7
2019-05-21T13:47:41.548Z,7
2019-05-21T13:52:43.960Z,8
2019-05-21T13:57:46.364Z,7
2019-05-21T14:02:48.835Z,7
2019-05-21T14:07:51.286Z,8
2019-05-21T14:12:53.773Z,8
2019-05-21T14:17:56.249Z,7
2019-05-21T14:22:58.669Z,10
2019-05-21T14:28:01.108Z,8
2019-05-21T14:33:03.582Z,7
2019-05-21T14:38:06.056Z,7
2019-05-21T14:43:08.613Z,7
2019-05-21T14:48:10.966Z,7
2019-05-21T14:53:13.492Z,6
2019-05-21T14:58:15.869Z,6
2019-05-21T15:03:25.082Z,6
2019-05-21T15:08:20.786Z,5
2019-05-21T15:13:23.333Z,7
2019-05-21T15:18:25.741Z,7
2019-05-21T15:23:28.183Z,7
2019-05-21T15:28:30.643Z,7
2019-05-21T15:33:33.323Z,8
2019-05-21T15:38:49.095Z,7
2019-05-21T15:43:38.041Z,7
2019-05-21T15:48:40.524Z,7
2019-05-21T15:53:43.065Z,6
2019-05-21T15:58:45.383Z,6
2019-05-21T16:03:47.872Z,6
2019-05-21T16:08:50.384Z,6
2019-05-21T16:13:52.790Z,6
2019-05-21T16:18:55.235Z,7
2019-05-21T16:23:57.668Z,7
2019-05-21T16:29:00.204Z,7
2019-05-21T16:34:02.592Z,7
2019-05-21T16:39:05.072Z,7
2019-05-21T16:44:07.544Z,7
2019-05-21T16:49:10.082Z,8
2019-05-21T16:54:12.439Z,6
2019-05-21T16:59:14.881Z,8
2019-05-21T17:04:17.353Z,8
2019-05-21T17:09:19.822Z,8
2019-05-21T17:14:22.268Z,7
2019-05-21T17:19:24.733Z,8
2019-05-21T17:24:28.662Z,7
2019-05-21T17:29:29.651Z,7
2019-05-21T17:34:32.130Z,7
2019-05-21T17:39:34.586Z,6
2019-05-21T17:44:37.225Z,6
2019-05-21T17:49:39.494Z,7
2019-05-21T17:54:55.448Z,7
2019-05-21T17:59:44.467Z,9
2019-05-21T18:04:46.871Z,7
2019-05-21T18:09:49.375Z,7
2019-05-21T18:14:51.818Z,7
2019-05-21T18:19:54.424Z,7
2019-05-21T18:24:56.679Z,6
2019-05-21T18:29:59.305Z,7
2019-05-21T18:35:01.643Z,7
2019-05-21T18:40:04.071Z,9
2019-05-21T18:45:06.568Z,8
2019-05-21T18:50:09.272Z,9
2019-05-21T18:55:11.448Z,8
2019-05-21T19:00:13.915Z,9
2019-05-21T19:05:16.352Z,9
2019-05-21T19:10:18.798Z,10
2019-05-21T19:15:21.286Z,11
2019-05-21T19:20:23.739Z,12
2019-05-21T19:25:26.184Z,17
2019-05-21T19:30:28.649Z,18
2019-05-21T19:35:33.114Z,18
2019-05-21T19:40:33.576Z,21
2019-05-21T19:45:36.071Z,23
2019-05-21T19:50:38.501Z,25
2019-05-21T19:55:40.922Z,24
2019-05-21T20:00:43.374Z,27
2019-05-21T20:05:45.848Z,29
2019-05-21T20:10:48.312Z,32
2019-05-21T20:15:50.817Z,33
2019-05-21T20:20:53.231Z,32
2019-05-21T20:25:56.933Z,37
2019-05-21T20:30:58.155Z,34
2019-05-21T20:36:00.613Z,36
2019-05-21T20:41:03.097Z,32
2019-05-21T20:46:05.568Z,33
2019-05-21T20:51:08.001Z,29
2019-05-21T20:56:10.431Z,34
2019-05-21T21:01:12.870Z,33
2019-05-21T21:06:15.387Z,35
2019-05-21T21:11:17.821Z,37
2019-05-21T21:16:20.289Z,39
2019-05-21T21:21:22.758Z,39
2019-05-21T21:26:25.204Z,42
2019-05-21T21:31:27.734Z,39
2019-05-21T21:36:30.104Z,38
2019-05-21T21:41:32.545Z,36
2019-05-21T21:46:35.047Z,42
2019-05-21T21:51:37.478Z,40
2019-05-21T21:56:39.906Z,37
2019-05-21T22:01:42.388Z,39
2019-05-21T22:06:44.875Z,37
2019-05-21T22:11:47.300Z,37
2019-05-21T22:16:51.652Z,33
2019-05-21T22:21:52.225Z,34
2019-05-21T22:26:54.799Z,34
2019-05-21T22:31:57.141Z,40
2019-05-21T22:36:59.619Z,41
2019-05-21T22:42:02.150Z,36
2019-05-21T22:47:04.543Z,38
2019-05-21T22:52:07.021Z,40
2019-05-21T22:57:09.424Z,33
2019-05-21T23:02:11.878Z,36
2019-05-21T23:07:14.349Z,37
2019-05-21T23:12:16.787Z,38
2019-05-21T23:17:19.319Z,40
2019-05-21T23:22:21.798Z,40
2019-05-21T23:27:24.190Z,37
2019-05-21T23:37:29.097Z,45
2019-05-21T23:42:31.585Z,42
2019-05-21T23:47:34.021Z,46
2019-05-21T23:52:37.166Z,48
2019-05-21T23:57:38.938Z,38
